Sea Voyager — V7QU2 — position and weather

sailwx.info

Track history (hours):
 
Tides and Currents Weather Stations Pressure Air Temp Water Temp Dewpoint Dewpoint Depression Visibility Wind Speed Wind Dir Waves Ship Positions

Sea Voyager

Last reported at 2014-Jul-18 05:33 UTC. Time now 2014-Jul-24 21:40 UTC.
Position N 01°14' E 103°55'.

Length 243 m; draft 8 m.

Type: Ship (hazmat cat A). MMSI: 538003439.

Date/timePositionNaut miles runAvg speedWind from/ knotsBaromVisibWave heightAir tempDewpointWater temp
2014-Jul-18 05:33N 01°14' E 103°55'  
2014-Jul-15 01:33N 01°13' E 103°55'2 2.2
2014-Jul-15 00:32N 01°16' E 103°55'0 0.1
2014-Jul-14 23:32N 01°16' E 103°55'0 0.1
2014-Jul-14 22:32N 01°16' E 103°55'0 0.0
2014-Jul-14 21:32N 01°16' E 103°55'0 0.0
2014-Jul-14 20:32N 01°16' E 103°55'0 0.0
2014-Jul-14 19:32N 01°16' E 103°55'0 0.1
2014-Jul-14 18:32N 01°16' E 103°55'0 0.1
2014-Jul-14 17:26N 01°16' E 103°55'0 0.1
2014-Jul-14 16:32N 01°16' E 103°55'0 0.1
2014-Jul-14 15:32N 01°16' E 103°55'0 0.0
2014-Jul-14 14:23N 01°16' E 103°55'0 0.0
2014-Jul-14 13:32N 01°15' E 103°55'0 0.1
2014-Jul-14 12:20N 01°15' E 103°55'0 0.1
2014-Jul-14 11:32N 01°16' E 103°55'0 0.1
2014-Jul-14 10:32N 01°16' E 103°55'0 0.0
2014-Jul-14 09:32N 01°16' E 103°55'0 0.1
2014-Jul-14 08:32N 01°16' E 103°55'0 0.0
2014-Jul-14 07:32N 01°16' E 103°55'0 0.1
2014-Jul-14 06:29N 01°16' E 103°55'0 0.0
2014-Jul-14 05:32N 01°16' E 103°55'0 0.0
2014-Jul-14 04:32N 01°16' E 103°55'2 1.8
2014-Jul-14 03:33N 01°14' E 103°54'6 6.1
2014-Jul-14 02:33N 01°13' E 103°48'  
2014-Jul-11 21:06N 01°18' E 103°44'0 0.3
2014-Jul-11 20:33N 01°17' E 103°44'3 3.4
2014-Jul-11 19:33N 01°15' E 103°47'6 4.2
2014-Jul-11 18:12N 01°13' E 103°52'4 6.2
2014-Jul-11 17:31N 01°15' E 103°56'  
2014-Jul-09 04:06N 01°17' E 103°56'0 0.0
2014-Jul-09 02:30N 01°17' E 103°56'0 0.0
2014-Jul-09 00:24N 01°17' E 103°56'0 0.0
2014-Jul-08 13:12N 01°17' E 103°56'  
Track history (hours):
 
Tides and Currents Weather Stations Pressure Air Temp Water Temp Dewpoint Dewpoint Depression Visibility Wind Speed Wind Dir Waves Ship Positions

Sea Voyager

Last reported at 2014-Jul-18 05:33 UTC. Time now 2014-Jul-24 21:40 UTC.
Position N 01°14' E 103°55'.

Length 243 m; draft 8 m.

Type: Ship (hazmat cat A). MMSI: 538003439.

Date/timePositionNaut miles runAvg speedWind from/ knotsBaromVisibWave heightAir tempDewpointWater temp
2014-Jul-18 05:33N 01°14' E 103°55'  
2014-Jul-15 01:33N 01°13' E 103°55'2 2.2
2014-Jul-15 00:32N 01°16' E 103°55'0 0.1
2014-Jul-14 23:32N 01°16' E 103°55'0 0.1
2014-Jul-14 22:32N 01°16' E 103°55'0 0.0
2014-Jul-14 21:32N 01°16' E 103°55'0 0.0
2014-Jul-14 20:32N 01°16' E 103°55'0 0.0
2014-Jul-14 19:32N 01°16' E 103°55'0 0.1
2014-Jul-14 18:32N 01°16' E 103°55'0 0.1
2014-Jul-14 17:26N 01°16' E 103°55'0 0.1
2014-Jul-14 16:32N 01°16' E 103°55'0 0.1
2014-Jul-14 15:32N 01°16' E 103°55'0 0.0
2014-Jul-14 14:23N 01°16' E 103°55'0 0.0
2014-Jul-14 13:32N 01°15' E 103°55'0 0.1
2014-Jul-14 12:20N 01°15' E 103°55'0 0.1
2014-Jul-14 11:32N 01°16' E 103°55'0 0.1
2014-Jul-14 10:32N 01°16' E 103°55'0 0.0
2014-Jul-14 09:32N 01°16' E 103°55'0 0.1
2014-Jul-14 08:32N 01°16' E 103°55'0 0.0
2014-Jul-14 07:32N 01°16' E 103°55'0 0.1
2014-Jul-14 06:29N 01°16' E 103°55'0 0.0
2014-Jul-14 05:32N 01°16' E 103°55'0 0.0
2014-Jul-14 04:32N 01°16' E 103°55'2 1.8
2014-Jul-14 03:33N 01°14' E 103°54'6 6.1
2014-Jul-14 02:33N 01°13' E 103°48'  
2014-Jul-11 21:06N 01°18' E 103°44'0 0.3
2014-Jul-11 20:33N 01°17' E 103°44'3 3.4
2014-Jul-11 19:33N 01°15' E 103°47'6 4.2
2014-Jul-11 18:12N 01°13' E 103°52'4 6.2
2014-Jul-11 17:31N 01°15' E 103°56'  
2014-Jul-09 04:06N 01°17' E 103°56'0 0.0
2014-Jul-09 02:30N 01°17' E 103°56'0 0.0
2014-Jul-09 00:24N 01°17' E 103°56'0 0.0
2014-Jul-08 13:12N 01°17' E 103°56'  

Dump ship's entire track history